sensor_id;sensor_type;location;lat;lon;timestamp;P1;durP1;ratioP1;P2;durP2;ratioP2
40588;SDS011;26297;49.450;6.640;2022-07-23T00:02:12;7.53;;;5.65;;
40588;SDS011;26297;49.450;6.640;2022-07-23T00:05:15;7.40;;;5.22;;
40588;SDS011;26297;49.450;6.640;2022-07-23T00:08:18;5.80;;;5.30;;
40588;SDS011;26297;49.450;6.640;2022-07-23T00:11:21;6.22;;;5.30;;
40588;SDS011;26297;49.450;6.640;2022-07-23T00:14:25;7.03;;;6.38;;
40588;SDS011;26297;49.450;6.640;2022-07-23T00:17:28;7.38;;;6.30;;
40588;SDS011;26297;49.450;6.640;2022-07-23T00:20:31;8.02;;;6.25;;
40588;SDS011;26297;49.450;6.640;2022-07-23T00:23:35;7.38;;;5.75;;
40588;SDS011;26297;49.450;6.640;2022-07-23T00:26:38;6.63;;;5.50;;
40588;SDS011;26297;49.450;6.640;2022-07-23T00:29:41;6.65;;;5.90;;
40588;SDS011;26297;49.450;6.640;2022-07-23T00:32:54;9.23;;;6.53;;
40588;SDS011;26297;49.450;6.640;2022-07-23T00:35:59;7.45;;;4.88;;
40588;SDS011;26297;49.450;6.640;2022-07-23T00:39:03;7.05;;;5.20;;
40588;SDS011;26297;49.450;6.640;2022-07-23T00:42:06;6.55;;;4.97;;
40588;SDS011;26297;49.450;6.640;2022-07-23T00:45:09;5.65;;;5.00;;
40588;SDS011;26297;49.450;6.640;2022-07-23T00:48:13;9.05;;;6.13;;
40588;SDS011;26297;49.450;6.640;2022-07-23T00:51:16;7.07;;;6.00;;
40588;SDS011;26297;49.450;6.640;2022-07-23T00:54:19;7.47;;;6.28;;
40588;SDS011;26297;49.450;6.640;2022-07-23T00:57:26;7.28;;;6.07;;
40588;SDS011;26297;49.450;6.640;2022-07-23T01:00:30;9.15;;;6.38;;
40588;SDS011;26297;49.450;6.640;2022-07-23T01:03:33;8.73;;;6.90;;
40588;SDS011;26297;49.450;6.640;2022-07-23T01:06:37;7.68;;;6.70;;
40588;SDS011;26297;49.450;6.640;2022-07-23T01:09:41;7.70;;;6.80;;
40588;SDS011;26297;49.450;6.640;2022-07-23T01:12:45;8.15;;;5.80;;
40588;SDS011;26297;49.450;6.640;2022-07-23T01:15:48;10.38;;;6.80;;
40588;SDS011;26297;49.450;6.640;2022-07-23T01:18:51;5.65;;;5.07;;
40588;SDS011;26297;49.450;6.640;2022-07-23T01:21:54;7.88;;;6.50;;
40588;SDS011;26297;49.450;6.640;2022-07-23T01:25:00;8.20;;;6.40;;
40588;SDS011;26297;49.450;6.640;2022-07-23T01:28:03;8.15;;;6.03;;
40588;SDS011;26297;49.450;6.640;2022-07-23T01:31:06;9.40;;;6.40;;
40588;SDS011;26297;49.450;6.640;2022-07-23T01:34:09;7.53;;;5.82;;
40588;SDS011;26297;49.450;6.640;2022-07-23T01:37:13;7.35;;;5.90;;
40588;SDS011;26297;49.450;6.640;2022-07-23T01:40:16;6.63;;;5.90;;
40588;SDS011;26297;49.450;6.640;2022-07-23T01:43:19;8.23;;;5.40;;
40588;SDS011;26297;49.450;6.640;2022-07-23T01:46:22;11.57;;;7.07;;
40588;SDS011;26297;49.450;6.640;2022-07-23T01:49:25;8.80;;;5.88;;
40588;SDS011;26297;49.450;6.640;2022-07-23T01:52:28;8.80;;;6.70;;
40588;SDS011;26297;49.450;6.640;2022-07-23T01:56:57;10.23;;;6.80;;
40588;SDS011;26297;49.450;6.640;2022-07-23T02:00:01;9.20;;;6.38;;
40588;SDS011;26297;49.450;6.640;2022-07-23T02:03:05;9.82;;;6.82;;
40588;SDS011;26297;49.450;6.640;2022-07-23T02:06:09;8.05;;;6.95;;
40588;SDS011;26297;49.450;6.640;2022-07-23T02:09:12;6.82;;;5.63;;
40588;SDS011;26297;49.450;6.640;2022-07-23T02:12:15;8.45;;;6.10;;
40588;SDS011;26297;49.450;6.640;2022-07-23T02:15:18;8.07;;;6.72;;
40588;SDS011;26297;49.450;6.640;2022-07-23T02:18:22;6.75;;;5.88;;
40588;SDS011;26297;49.450;6.640;2022-07-23T02:21:25;7.45;;;6.60;;
40588;SDS011;26297;49.450;6.640;2022-07-23T02:24:28;7.43;;;6.43;;
40588;SDS011;26297;49.450;6.640;2022-07-23T02:27:31;7.25;;;5.82;;
40588;SDS011;26297;49.450;6.640;2022-07-23T02:30:35;7.85;;;6.88;;
40588;SDS011;26297;49.450;6.640;2022-07-23T02:33:38;7.60;;;6.28;;
40588;SDS011;26297;49.450;6.640;2022-07-23T02:36:41;7.97;;;6.93;;
40588;SDS011;26297;49.450;6.640;2022-07-23T02:39:44;6.93;;;5.45;;
40588;SDS011;26297;49.450;6.640;2022-07-23T02:42:47;10.32;;;6.40;;
40588;SDS011;26297;49.450;6.640;2022-07-23T02:45:51;9.40;;;6.78;;
40588;SDS011;26297;49.450;6.640;2022-07-23T02:48:53;9.90;;;6.97;;
40588;SDS011;26297;49.450;6.640;2022-07-23T02:51:56;8.15;;;6.18;;
40588;SDS011;26297;49.450;6.640;2022-07-23T02:55:00;11.10;;;6.43;;
40588;SDS011;26297;49.450;6.640;2022-07-23T02:58:04;6.80;;;5.93;;
40588;SDS011;26297;49.450;6.640;2022-07-23T03:01:06;7.32;;;6.32;;
40588;SDS011;26297;49.450;6.640;2022-07-23T03:04:09;9.13;;;6.88;;
40588;SDS011;26297;49.450;6.640;2022-07-23T03:07:12;7.30;;;6.07;;
40588;SDS011;26297;49.450;6.640;2022-07-23T03:10:15;7.20;;;6.50;;
40588;SDS011;26297;49.450;6.640;2022-07-23T03:13:18;8.02;;;6.32;;
40588;SDS011;26297;49.450;6.640;2022-07-23T03:16:21;8.77;;;6.40;;
40588;SDS011;26297;49.450;6.640;2022-07-23T03:19:25;9.60;;;6.32;;
40588;SDS011;26297;49.450;6.640;2022-07-23T03:22:28;9.68;;;6.40;;
40588;SDS011;26297;49.450;6.640;2022-07-23T03:25:31;8.02;;;6.50;;
40588;SDS011;26297;49.450;6.640;2022-07-23T03:28:35;9.85;;;6.40;;
40588;SDS011;26297;49.450;6.640;2022-07-23T03:31:38;7.35;;;6.38;;
40588;SDS011;26297;49.450;6.640;2022-07-23T03:34:41;10.45;;;6.35;;
40588;SDS011;26297;49.450;6.640;2022-07-23T03:37:45;8.57;;;6.40;;
40588;SDS011;26297;49.450;6.640;2022-07-23T03:40:48;7.07;;;6.13;;
40588;SDS011;26297;49.450;6.640;2022-07-23T03:43:51;7.78;;;6.97;;
40588;SDS011;26297;49.450;6.640;2022-07-23T03:46:54;10.15;;;6.20;;
40588;SDS011;26297;49.450;6.640;2022-07-23T03:49:57;7.20;;;6.03;;
40588;SDS011;26297;49.450;6.640;2022-07-23T03:53:00;8.07;;;6.35;;
40588;SDS011;26297;49.450;6.640;2022-07-23T03:56:04;7.18;;;6.25;;
40588;SDS011;26297;49.450;6.640;2022-07-23T03:59:07;9.13;;;6.03;;
40588;SDS011;26297;49.450;6.640;2022-07-23T04:02:11;9.57;;;7.03;;
40588;SDS011;26297;49.450;6.640;2022-07-23T04:05:14;7.65;;;6.15;;
40588;SDS011;26297;49.450;6.640;2022-07-23T04:08:17;7.80;;;6.18;;
40588;SDS011;26297;49.450;6.640;2022-07-23T04:11:20;10.95;;;6.22;;
40588;SDS011;26297;49.450;6.640;2022-07-23T04:14:23;8.38;;;6.10;;
40588;SDS011;26297;49.450;6.640;2022-07-23T04:17:26;10.43;;;6.85;;
40588;SDS011;26297;49.450;6.640;2022-07-23T04:20:29;9.90;;;6.85;;
40588;SDS011;26297;49.450;6.640;2022-07-23T04:23:33;9.00;;;6.43;;
40588;SDS011;26297;49.450;6.640;2022-07-23T04:26:36;7.70;;;6.57;;
40588;SDS011;26297;49.450;6.640;2022-07-23T04:29:39;7.03;;;6.32;;
40588;SDS011;26297;49.450;6.640;2022-07-23T04:32:42;7.93;;;6.30;;
40588;SDS011;26297;49.450;6.640;2022-07-23T04:35:46;9.32;;;6.78;;
40588;SDS011;26297;49.450;6.640;2022-07-23T04:38:49;8.60;;;6.93;;
40588;SDS011;26297;49.450;6.640;2022-07-23T04:41:52;8.52;;;6.75;;
40588;SDS011;26297;49.450;6.640;2022-07-23T04:44:54;8.50;;;6.75;;
40588;SDS011;26297;49.450;6.640;2022-07-23T04:47:57;8.45;;;6.07;;
40588;SDS011;26297;49.450;6.640;2022-07-23T04:51:00;10.20;;;6.72;;
40588;SDS011;26297;49.450;6.640;2022-07-23T04:54:03;9.20;;;6.25;;
40588;SDS011;26297;49.450;6.640;2022-07-23T04:57:06;9.85;;;7.35;;
40588;SDS011;26297;49.450;6.640;2022-07-23T05:00:09;10.52;;;7.38;;
40588;SDS011;26297;49.450;6.640;2022-07-23T05:03:13;8.48;;;6.28;;
40588;SDS011;26297;49.450;6.640;2022-07-23T05:06:16;8.90;;;7.25;;
40588;SDS011;26297;49.450;6.640;2022-07-23T05:09:19;8.55;;;6.57;;
40588;SDS011;26297;49.450;6.640;2022-07-23T05:12:22;9.48;;;7.18;;
40588;SDS011;26297;49.450;6.640;2022-07-23T05:15:25;10.95;;;7.70;;
40588;SDS011;26297;49.450;6.640;2022-07-23T05:18:28;8.82;;;7.00;;
40588;SDS011;26297;49.450;6.640;2022-07-23T05:21:31;11.23;;;7.05;;
40588;SDS011;26297;49.450;6.640;2022-07-23T05:24:34;8.23;;;6.93;;
40588;SDS011;26297;49.450;6.640;2022-07-23T05:27:37;9.07;;;6.97;;
40588;SDS011;26297;49.450;6.640;2022-07-23T05:30:40;9.75;;;6.93;;
40588;SDS011;26297;49.450;6.640;2022-07-23T05:33:43;8.20;;;6.25;;
40588;SDS011;26297;49.450;6.640;2022-07-23T05:36:46;8.30;;;7.35;;
40588;SDS011;26297;49.450;6.640;2022-07-23T05:39:51;9.82;;;7.30;;
40588;SDS011;26297;49.450;6.640;2022-07-23T05:42:54;10.35;;;6.63;;
40588;SDS011;26297;49.450;6.640;2022-07-23T05:45:56;8.20;;;5.75;;
40588;SDS011;26297;49.450;6.640;2022-07-23T05:48:59;9.50;;;6.35;;
40588;SDS011;26297;49.450;6.640;2022-07-23T05:52:03;7.68;;;6.57;;
40588;SDS011;26297;49.450;6.640;2022-07-23T05:55:08;8.55;;;6.68;;
40588;SDS011;26297;49.450;6.640;2022-07-23T05:58:12;8.40;;;6.85;;
40588;SDS011;26297;49.450;6.640;2022-07-23T06:01:15;10.55;;;8.15;;
40588;SDS011;26297;49.450;6.640;2022-07-23T06:04:19;10.82;;;7.88;;
40588;SDS011;26297;49.450;6.640;2022-07-23T06:07:22;9.10;;;7.10;;
40588;SDS011;26297;49.450;6.640;2022-07-23T06:10:25;11.82;;;8.00;;
40588;SDS011;26297;49.450;6.640;2022-07-23T06:13:28;10.52;;;7.82;;
40588;SDS011;26297;49.450;6.640;2022-07-23T06:16:31;10.98;;;8.02;;
40588;SDS011;26297;49.450;6.640;2022-07-23T06:19:34;9.52;;;7.22;;
40588;SDS011;26297;49.450;6.640;2022-07-23T06:22:37;12.95;;;7.57;;
40588;SDS011;26297;49.450;6.640;2022-07-23T06:25:41;10.00;;;7.50;;
40588;SDS011;26297;49.450;6.640;2022-07-23T06:28:44;11.00;;;8.07;;
40588;SDS011;26297;49.450;6.640;2022-07-23T06:31:47;12.35;;;7.40;;
40588;SDS011;26297;49.450;6.640;2022-07-23T06:34:50;12.27;;;7.68;;
40588;SDS011;26297;49.450;6.640;2022-07-23T06:37:53;10.75;;;8.18;;
40588;SDS011;26297;49.450;6.640;2022-07-23T06:40:56;9.45;;;7.68;;
40588;SDS011;26297;49.450;6.640;2022-07-23T06:43:59;10.30;;;8.25;;
40588;SDS011;26297;49.450;6.640;2022-07-23T06:47:02;11.27;;;7.65;;
40588;SDS011;26297;49.450;6.640;2022-07-23T06:50:06;10.30;;;8.07;;
40588;SDS011;26297;49.450;6.640;2022-07-23T06:53:09;9.80;;;7.13;;
40588;SDS011;26297;49.450;6.640;2022-07-23T06:56:12;10.23;;;7.68;;
40588;SDS011;26297;49.450;6.640;2022-07-23T06:59:15;9.88;;;6.95;;
40588;SDS011;26297;49.450;6.640;2022-07-23T07:02:19;8.50;;;7.00;;
40588;SDS011;26297;49.450;6.640;2022-07-23T07:05:22;8.23;;;5.95;;
40588;SDS011;26297;49.450;6.640;2022-07-23T07:08:25;8.27;;;6.85;;
40588;SDS011;26297;49.450;6.640;2022-07-23T07:11:28;8.88;;;6.68;;
40588;SDS011;26297;49.450;6.640;2022-07-23T07:14:31;9.00;;;6.93;;
40588;SDS011;26297;49.450;6.640;2022-07-23T07:17:37;9.30;;;7.03;;
40588;SDS011;26297;49.450;6.640;2022-07-23T07:20:41;7.28;;;6.50;;
40588;SDS011;26297;49.450;6.640;2022-07-23T07:23:44;11.43;;;7.03;;
40588;SDS011;26297;49.450;6.640;2022-07-23T07:26:47;10.52;;;6.55;;
40588;SDS011;26297;49.450;6.640;2022-07-23T07:29:50;7.70;;;6.85;;
40588;SDS011;26297;49.450;6.640;2022-07-23T07:32:53;8.93;;;6.22;;
40588;SDS011;26297;49.450;6.640;2022-07-23T07:35:56;11.20;;;8.13;;
40588;SDS011;26297;49.450;6.640;2022-07-23T07:38:58;7.65;;;6.28;;
40588;SDS011;26297;49.450;6.640;2022-07-23T07:42:01;8.80;;;6.60;;
40588;SDS011;26297;49.450;6.640;2022-07-23T07:45:05;9.80;;;7.18;;
40588;SDS011;26297;49.450;6.640;2022-07-23T07:48:09;7.38;;;6.25;;
40588;SDS011;26297;49.450;6.640;2022-07-23T07:51:11;10.13;;;7.95;;
40588;SDS011;26297;49.450;6.640;2022-07-23T07:54:15;9.38;;;6.60;;
40588;SDS011;26297;49.450;6.640;2022-07-23T07:57:18;7.85;;;6.38;;
40588;SDS011;26297;49.450;6.640;2022-07-23T08:00:22;9.52;;;6.60;;
40588;SDS011;26297;49.450;6.640;2022-07-23T08:03:26;9.07;;;6.80;;
40588;SDS011;26297;49.450;6.640;2022-07-23T08:06:29;7.85;;;6.28;;
40588;SDS011;26297;49.450;6.640;2022-07-23T08:09:32;10.73;;;6.68;;
40588;SDS011;26297;49.450;6.640;2022-07-23T08:12:46;11.93;;;6.88;;
40588;SDS011;26297;49.450;6.640;2022-07-23T08:15:51;8.13;;;6.53;;
40588;SDS011;26297;49.450;6.640;2022-07-23T08:18:56;9.15;;;7.43;;
40588;SDS011;26297;49.450;6.640;2022-07-23T08:21:59;7.47;;;6.60;;
40588;SDS011;26297;49.450;6.640;2022-07-23T08:25:02;6.90;;;6.13;;
40588;SDS011;26297;49.450;6.640;2022-07-23T08:28:07;8.63;;;6.38;;
40588;SDS011;26297;49.450;6.640;2022-07-23T08:31:12;8.23;;;6.70;;
40588;SDS011;26297;49.450;6.640;2022-07-23T08:34:17;8.40;;;6.82;;
40588;SDS011;26297;49.450;6.640;2022-07-23T08:37:21;8.82;;;7.05;;
40588;SDS011;26297;49.450;6.640;2022-07-23T08:40:25;7.53;;;6.63;;
40588;SDS011;26297;49.450;6.640;2022-07-23T08:43:31;8.50;;;6.60;;
40588;SDS011;26297;49.450;6.640;2022-07-23T08:46:37;8.25;;;6.78;;
40588;SDS011;26297;49.450;6.640;2022-07-23T08:49:42;8.30;;;6.47;;
40588;SDS011;26297;49.450;6.640;2022-07-23T08:52:48;7.38;;;6.25;;
40588;SDS011;26297;49.450;6.640;2022-07-23T08:55:54;7.75;;;6.18;;
40588;SDS011;26297;49.450;6.640;2022-07-23T08:59:01;8.15;;;6.63;;
40588;SDS011;26297;49.450;6.640;2022-07-23T09:02:04;8.32;;;6.90;;
40588;SDS011;26297;49.450;6.640;2022-07-23T09:05:09;8.32;;;6.20;;
40588;SDS011;26297;49.450;6.640;2022-07-23T09:08:16;9.05;;;6.28;;
40588;SDS011;26297;49.450;6.640;2022-07-23T09:11:22;7.78;;;6.45;;
40588;SDS011;26297;49.450;6.640;2022-07-23T09:14:38;7.88;;;6.55;;
40588;SDS011;26297;49.450;6.640;2022-07-23T09:17:46;11.15;;;6.57;;
40588;SDS011;26297;49.450;6.640;2022-07-23T09:20:49;8.77;;;6.20;;
40588;SDS011;26297;49.450;6.640;2022-07-23T09:24:31;7.28;;;5.60;;
40588;SDS011;26297;49.450;6.640;2022-07-23T09:27:47;7.80;;;6.32;;
40588;SDS011;26297;49.450;6.640;2022-07-23T09:30:51;8.20;;;5.68;;
40588;SDS011;26297;49.450;6.640;2022-07-23T09:34:01;7.18;;;5.88;;
40588;SDS011;26297;49.450;6.640;2022-07-23T09:40:15;14.48;;;6.07;;
40588;SDS011;26297;49.450;6.640;2022-07-23T09:43:26;7.68;;;6.13;;
40588;SDS011;26297;49.450;6.640;2022-07-23T09:46:33;7.38;;;5.63;;
40588;SDS011;26297;49.450;6.640;2022-07-23T09:49:36;7.60;;;5.82;;
40588;SDS011;26297;49.450;6.640;2022-07-23T09:52:43;10.95;;;6.03;;
40588;SDS011;26297;49.450;6.640;2022-07-23T09:55:51;9.52;;;6.93;;
40588;SDS011;26297;49.450;6.640;2022-07-23T09:59:00;8.30;;;6.25;;
40588;SDS011;26297;49.450;6.640;2022-07-23T10:02:19;7.22;;;5.70;;
40588;SDS011;26297;49.450;6.640;2022-07-23T10:05:27;7.68;;;5.57;;
40588;SDS011;26297;49.450;6.640;2022-07-23T10:08:32;6.63;;;5.70;;
40588;SDS011;26297;49.450;6.640;2022-07-23T10:11:36;9.57;;;5.68;;
40588;SDS011;26297;49.450;6.640;2022-07-23T10:14:40;7.93;;;5.75;;
40588;SDS011;26297;49.450;6.640;2022-07-23T10:17:44;8.35;;;5.57;;
40588;SDS011;26297;49.450;6.640;2022-07-23T10:20:47;6.60;;;6.00;;
40588;SDS011;26297;49.450;6.640;2022-07-23T10:24:01;6.78;;;5.68;;
40588;SDS011;26297;49.450;6.640;2022-07-23T10:30:36;7.30;;;5.88;;
40588;SDS011;26297;49.450;6.640;2022-07-23T10:34:12;8.68;;;6.10;;
40588;SDS011;26297;49.450;6.640;2022-07-23T10:37:18;8.97;;;5.57;;
40588;SDS011;26297;49.450;6.640;2022-07-23T10:40:28;7.53;;;5.75;;
40588;SDS011;26297;49.450;6.640;2022-07-23T10:43:33;7.45;;;5.20;;
40588;SDS011;26297;49.450;6.640;2022-07-23T10:50:29;6.30;;;5.70;;
40588;SDS011;26297;49.450;6.640;2022-07-23T11:03:27;6.18;;;5.53;;
40588;SDS011;26297;49.450;6.640;2022-07-23T11:09:50;6.22;;;5.13;;
40588;SDS011;26297;49.450;6.640;2022-07-23T11:12:54;5.88;;;5.32;;
40588;SDS011;26297;49.450;6.640;2022-07-23T11:19:04;6.32;;;5.68;;
40588;SDS011;26297;49.450;6.640;2022-07-23T11:22:08;7.15;;;4.88;;
40588;SDS011;26297;49.450;6.640;2022-07-23T11:28:24;7.03;;;5.65;;
40588;SDS011;26297;49.450;6.640;2022-07-23T11:31:29;5.50;;;5.00;;
40588;SDS011;26297;49.450;6.640;2022-07-23T11:34:41;7.68;;;5.40;;
40588;SDS011;26297;49.450;6.640;2022-07-23T11:37:46;4.97;;;4.47;;
40588;SDS011;26297;49.450;6.640;2022-07-23T11:40:51;4.95;;;4.50;;
40588;SDS011;26297;49.450;6.640;2022-07-23T11:43:57;7.28;;;4.80;;
40588;SDS011;26297;49.450;6.640;2022-07-23T11:47:07;5.50;;;5.00;;
40588;SDS011;26297;49.450;6.640;2022-07-23T11:50:16;8.13;;;4.90;;
40588;SDS011;26297;49.450;6.640;2022-07-23T11:53:33;9.73;;;4.70;;
40588;SDS011;26297;49.450;6.640;2022-07-23T11:56:36;6.93;;;5.28;;
40588;SDS011;26297;49.450;6.640;2022-07-23T11:59:39;5.53;;;5.03;;
40588;SDS011;26297;49.450;6.640;2022-07-23T12:02:45;5.55;;;4.68;;
40588;SDS011;26297;49.450;6.640;2022-07-23T12:05:58;6.13;;;3.90;;
40588;SDS011;26297;49.450;6.640;2022-07-23T12:09:02;7.20;;;5.43;;
40588;SDS011;26297;49.450;6.640;2022-07-23T12:12:05;5.43;;;4.53;;
40588;SDS011;26297;49.450;6.640;2022-07-23T12:15:10;6.15;;;5.38;;
40588;SDS011;26297;49.450;6.640;2022-07-23T12:18:16;5.65;;;4.82;;
40588;SDS011;26297;49.450;6.640;2022-07-23T12:21:21;6.20;;;4.07;;
40588;SDS011;26297;49.450;6.640;2022-07-23T12:24:25;7.85;;;5.22;;
40588;SDS011;26297;49.450;6.640;2022-07-23T12:27:28;6.15;;;4.95;;
40588;SDS011;26297;49.450;6.640;2022-07-23T12:30:34;5.10;;;4.60;;
40588;SDS011;26297;49.450;6.640;2022-07-23T12:33:43;4.82;;;4.20;;
40588;SDS011;26297;49.450;6.640;2022-07-23T12:36:47;6.68;;;4.70;;
40588;SDS011;26297;49.450;6.640;2022-07-23T12:39:51;5.05;;;3.95;;
40588;SDS011;26297;49.450;6.640;2022-07-23T12:49:26;6.10;;;4.65;;
40588;SDS011;26297;49.450;6.640;2022-07-23T12:52:30;7.28;;;4.80;;
40588;SDS011;26297;49.450;6.640;2022-07-23T12:55:33;6.28;;;4.40;;
40588;SDS011;26297;49.450;6.640;2022-07-23T13:01:55;3.35;;;3.03;;
40588;SDS011;26297;49.450;6.640;2022-07-23T13:05:00;4.63;;;3.95;;
40588;SDS011;26297;49.450;6.640;2022-07-23T13:08:03;6.00;;;4.18;;
40588;SDS011;26297;49.450;6.640;2022-07-23T13:11:06;7.15;;;4.28;;
40588;SDS011;26297;49.450;6.640;2022-07-23T13:14:10;5.35;;;4.10;;
40588;SDS011;26297;49.450;6.640;2022-07-23T13:17:15;6.55;;;4.63;;
40588;SDS011;26297;49.450;6.640;2022-07-23T13:20:18;4.22;;;3.75;;
40588;SDS011;26297;49.450;6.640;2022-07-23T13:23:21;4.82;;;4.25;;
40588;SDS011;26297;49.450;6.640;2022-07-23T13:29:14;5.28;;;4.35;;
40588;SDS011;26297;49.450;6.640;2022-07-23T13:32:17;5.80;;;4.82;;
40588;SDS011;26297;49.450;6.640;2022-07-23T13:35:20;5.43;;;4.55;;
40588;SDS011;26297;49.450;6.640;2022-07-23T13:38:23;5.85;;;4.60;;
40588;SDS011;26297;49.450;6.640;2022-07-23T13:41:27;6.82;;;4.68;;
40588;SDS011;26297;49.450;6.640;2022-07-23T13:44:30;4.80;;;4.40;;
40588;SDS011;26297;49.450;6.640;2022-07-23T13:47:34;7.47;;;4.68;;
40588;SDS011;26297;49.450;6.640;2022-07-23T13:50:37;5.28;;;4.53;;
40588;SDS011;26297;49.450;6.640;2022-07-23T13:53:41;5.03;;;4.50;;
40588;SDS011;26297;49.450;6.640;2022-07-23T13:56:44;7.15;;;5.18;;
40588;SDS011;26297;49.450;6.640;2022-07-23T13:59:47;5.78;;;4.95;;
40588;SDS011;26297;49.450;6.640;2022-07-23T14:02:50;6.55;;;5.10;;
40588;SDS011;26297;49.450;6.640;2022-07-23T14:05:53;7.40;;;4.75;;
40588;SDS011;26297;49.450;6.640;2022-07-23T14:08:57;6.20;;;5.57;;
40588;SDS011;26297;49.450;6.640;2022-07-23T14:12:00;6.15;;;5.45;;
40588;SDS011;26297;49.450;6.640;2022-07-23T14:15:04;7.45;;;5.38;;
40588;SDS011;26297;49.450;6.640;2022-07-23T14:18:09;5.95;;;5.35;;
40588;SDS011;26297;49.450;6.640;2022-07-23T14:21:12;6.15;;;4.85;;
40588;SDS011;26297;49.450;6.640;2022-07-23T14:24:16;8.00;;;5.68;;
40588;SDS011;26297;49.450;6.640;2022-07-23T14:27:19;8.00;;;5.53;;
40588;SDS011;26297;49.450;6.640;2022-07-23T14:30:22;8.20;;;4.88;;
40588;SDS011;26297;49.450;6.640;2022-07-23T14:33:26;5.80;;;5.13;;
40588;SDS011;26297;49.450;6.640;2022-07-23T14:36:29;5.97;;;4.65;;
40588;SDS011;26297;49.450;6.640;2022-07-23T14:39:32;7.32;;;6.10;;
40588;SDS011;26297;49.450;6.640;2022-07-23T14:42:36;5.97;;;4.60;;
40588;SDS011;26297;49.450;6.640;2022-07-23T14:45:39;5.30;;;4.80;;
40588;SDS011;26297;49.450;6.640;2022-07-23T14:48:42;8.23;;;5.25;;
40588;SDS011;26297;49.450;6.640;2022-07-23T14:51:45;6.82;;;5.63;;
40588;SDS011;26297;49.450;6.640;2022-07-23T14:54:49;10.20;;;5.18;;
40588;SDS011;26297;49.450;6.640;2022-07-23T14:57:52;6.28;;;5.05;;
40588;SDS011;26297;49.450;6.640;2022-07-23T15:00:55;8.05;;;4.53;;
40588;SDS011;26297;49.450;6.640;2022-07-23T15:03:58;5.53;;;4.95;;
40588;SDS011;26297;49.450;6.640;2022-07-23T15:07:01;6.13;;;5.18;;
40588;SDS011;26297;49.450;6.640;2022-07-23T15:10:05;7.25;;;5.22;;
40588;SDS011;26297;49.450;6.640;2022-07-23T15:13:08;7.88;;;5.25;;
40588;SDS011;26297;49.450;6.640;2022-07-23T15:16:12;6.22;;;5.43;;
40588;SDS011;26297;49.450;6.640;2022-07-23T15:19:16;6.25;;;4.95;;
40588;SDS011;26297;49.450;6.640;2022-07-23T15:22:19;5.38;;;4.35;;
40588;SDS011;26297;49.450;6.640;2022-07-23T15:25:22;7.65;;;5.55;;
40588;SDS011;26297;49.450;6.640;2022-07-23T15:28:25;5.47;;;4.80;;
40588;SDS011;26297;49.450;6.640;2022-07-23T15:31:28;7.53;;;5.05;;
40588;SDS011;26297;49.450;6.640;2022-07-23T15:34:31;7.65;;;5.18;;
40588;SDS011;26297;49.450;6.640;2022-07-23T15:37:35;6.43;;;4.95;;
40588;SDS011;26297;49.450;6.640;2022-07-23T15:40:38;7.00;;;5.47;;
40588;SDS011;26297;49.450;6.640;2022-07-23T15:43:41;6.70;;;5.75;;
40588;SDS011;26297;49.450;6.640;2022-07-23T15:46:44;6.40;;;5.68;;
40588;SDS011;26297;49.450;6.640;2022-07-23T15:49:47;5.78;;;5.18;;
40588;SDS011;26297;49.450;6.640;2022-07-23T15:52:50;7.68;;;5.40;;
40588;SDS011;26297;49.450;6.640;2022-07-23T15:55:53;6.38;;;5.20;;
40588;SDS011;26297;49.450;6.640;2022-07-23T15:58:57;7.28;;;5.63;;
40588;SDS011;26297;49.450;6.640;2022-07-23T16:01:59;5.80;;;4.90;;
40588;SDS011;26297;49.450;6.640;2022-07-23T16:05:03;5.97;;;5.30;;
40588;SDS011;26297;49.450;6.640;2022-07-23T16:08:07;5.18;;;4.68;;
40588;SDS011;26297;49.450;6.640;2022-07-23T16:11:10;7.53;;;5.13;;
40588;SDS011;26297;49.450;6.640;2022-07-23T16:14:14;5.80;;;5.10;;
40588;SDS011;26297;49.450;6.640;2022-07-23T16:17:17;5.68;;;4.90;;
40588;SDS011;26297;49.450;6.640;2022-07-23T16:20:20;5.82;;;5.15;;
40588;SDS011;26297;49.450;6.640;2022-07-23T16:23:24;6.78;;;5.68;;
40588;SDS011;26297;49.450;6.640;2022-07-23T16:26:27;5.35;;;4.85;;
40588;SDS011;26297;49.450;6.640;2022-07-23T16:29:30;5.88;;;4.90;;
40588;SDS011;26297;49.450;6.640;2022-07-23T16:32:33;5.20;;;4.70;;
40588;SDS011;26297;49.450;6.640;2022-07-23T16:35:36;5.85;;;4.95;;
40588;SDS011;26297;49.450;6.640;2022-07-23T16:38:40;7.10;;;5.63;;
40588;SDS011;26297;49.450;6.640;2022-07-23T16:41:43;9.25;;;5.95;;
40588;SDS011;26297;49.450;6.640;2022-07-23T16:44:47;6.78;;;5.20;;
40588;SDS011;26297;49.450;6.640;2022-07-23T16:47:49;6.45;;;5.18;;
40588;SDS011;26297;49.450;6.640;2022-07-23T16:50:54;5.03;;;4.35;;
40588;SDS011;26297;49.450;6.640;2022-07-23T16:53:57;10.10;;;5.70;;
40588;SDS011;26297;49.450;6.640;2022-07-23T16:57:00;5.88;;;4.85;;
40588;SDS011;26297;49.450;6.640;2022-07-23T17:00:04;5.55;;;5.05;;
40588;SDS011;26297;49.450;6.640;2022-07-23T17:03:10;6.68;;;4.53;;
40588;SDS011;26297;49.450;6.640;2022-07-23T17:06:13;7.05;;;4.88;;
40588;SDS011;26297;49.450;6.640;2022-07-23T17:09:17;7.65;;;4.78;;
40588;SDS011;26297;49.450;6.640;2022-07-23T17:12:20;8.07;;;4.90;;
40588;SDS011;26297;49.450;6.640;2022-07-23T17:15:23;5.82;;;5.05;;
40588;SDS011;26297;49.450;6.640;2022-07-23T17:18:26;6.85;;;5.55;;
40588;SDS011;26297;49.450;6.640;2022-07-23T17:21:29;7.70;;;4.63;;
40588;SDS011;26297;49.450;6.640;2022-07-23T17:24:32;4.85;;;4.15;;
40588;SDS011;26297;49.450;6.640;2022-07-23T17:27:36;7.18;;;5.25;;
40588;SDS011;26297;49.450;6.640;2022-07-23T17:30:39;8.32;;;5.70;;
40588;SDS011;26297;49.450;6.640;2022-07-23T17:33:43;6.00;;;5.22;;
40588;SDS011;26297;49.450;6.640;2022-07-23T17:36:46;6.25;;;4.97;;
40588;SDS011;26297;49.450;6.640;2022-07-23T17:39:51;5.57;;;4.70;;
40588;SDS011;26297;49.450;6.640;2022-07-23T17:42:54;6.88;;;5.07;;
40588;SDS011;26297;49.450;6.640;2022-07-23T17:45:57;7.50;;;5.10;;
40588;SDS011;26297;49.450;6.640;2022-07-23T17:49:01;7.40;;;4.68;;
40588;SDS011;26297;49.450;6.640;2022-07-23T17:52:04;5.55;;;4.63;;
40588;SDS011;26297;49.450;6.640;2022-07-23T17:55:07;6.07;;;5.43;;
40588;SDS011;26297;49.450;6.640;2022-07-23T18:01:21;6.82;;;5.07;;
40588;SDS011;26297;49.450;6.640;2022-07-23T18:04:24;6.45;;;5.20;;
40588;SDS011;26297;49.450;6.640;2022-07-23T18:07:28;7.88;;;5.30;;
40588;SDS011;26297;49.450;6.640;2022-07-23T18:10:32;6.70;;;4.88;;
40588;SDS011;26297;49.450;6.640;2022-07-23T18:13:39;6.45;;;5.25;;
40588;SDS011;26297;49.450;6.640;2022-07-23T18:16:54;6.97;;;4.55;;
40588;SDS011;26297;49.450;6.640;2022-07-23T18:19:58;6.72;;;4.65;;
40588;SDS011;26297;49.450;6.640;2022-07-23T18:23:05;6.82;;;4.57;;
40588;SDS011;26297;49.450;6.640;2022-07-23T18:26:08;5.18;;;4.68;;
40588;SDS011;26297;49.450;6.640;2022-07-23T18:29:12;6.05;;;4.60;;
40588;SDS011;26297;49.450;6.640;2022-07-23T18:32:15;4.65;;;4.15;;
40588;SDS011;26297;49.450;6.640;2022-07-23T18:35:19;6.78;;;5.13;;
40588;SDS011;26297;49.450;6.640;2022-07-23T18:38:25;5.88;;;5.10;;
40588;SDS011;26297;49.450;6.640;2022-07-23T18:41:29;5.75;;;4.95;;
40588;SDS011;26297;49.450;6.640;2022-07-23T18:44:37;4.88;;;4.25;;
40588;SDS011;26297;49.450;6.640;2022-07-23T18:47:50;4.32;;;3.92;;
40588;SDS011;26297;49.450;6.640;2022-07-23T18:50:57;5.88;;;4.43;;
40588;SDS011;26297;49.450;6.640;2022-07-23T18:54:12;4.78;;;4.25;;
40588;SDS011;26297;49.450;6.640;2022-07-23T18:57:39;7.93;;;4.40;;
40588;SDS011;26297;49.450;6.640;2022-07-23T19:00:43;4.40;;;3.88;;
40588;SDS011;26297;49.450;6.640;2022-07-23T19:03:56;5.88;;;4.90;;
40588;SDS011;26297;49.450;6.640;2022-07-23T19:11:21;6.00;;;4.80;;
40588;SDS011;26297;49.450;6.640;2022-07-23T19:14:24;5.35;;;4.40;;
40588;SDS011;26297;49.450;6.640;2022-07-23T19:17:28;7.82;;;4.93;;
40588;SDS011;26297;49.450;6.640;2022-07-23T19:20:34;5.88;;;5.28;;